Time;durP1;ratioP1;P1;durP2;ratioP2;P2;SDS_P1;SDS_P2;PMS_P1;PMS_P2;Temp;Humidity;BMP_temperature;BMP_pressure;BME280_temperature;BME280_humidity;BME280_pressure;Samples;Min_cycle;Max_cycle;Signal;HPM_P1;HPM_P2
2021/01/15 00:01:38;;;;;;;3.25;2.47;;;1.50;1.00;;;;;;5074112;28;20172;-67
2021/01/15 00:04:04;;;;;;;5.53;3.30;;;1.50;1.00;;;;;;5074087;28;20196;-67
2021/01/15 00:06:30;;;;;;;7.13;2.65;;;1.50;1.00;;;;;;5074034;28;20697;-67
2021/01/15 00:08:56;;;;;;;2.70;1.98;;;1.50;1.00;;;;;;5074001;28;20170;-67
2021/01/15 00:11:28;;;;;;;5.97;3.03;;;1.50;1.00;;;;;;5072728;28;20180;-67
2021/01/15 00:13:55;;;;;;;5.18;3.20;;;1.50;1.00;;;;;;5074113;28;20621;-67
2021/01/15 00:16:28;;;;;;;6.50;4.07;;;1.40;1.00;;;;;;5073913;28;20172;-67
2021/01/15 00:18:55;;;;;;;10.68;4.25;;;1.20;1.00;;;;;;5074273;28;20168;-67
2021/01/15 00:21:32;;;;;;;6.95;3.78;;;1.10;1.00;;;;;;5074043;28;20243;-67
2021/01/15 00:24:03;;;;;;;5.80;2.80;;;1.10;1.00;;;;;;5073001;28;20179;-67
2021/01/15 00:26:31;;;;;;;6.90;3.97;;;1.20;1.00;;;;;;5073968;28;20215;-67
2021/01/15 00:28:57;;;;;;;10.30;3.63;;;1.00;1.00;;;;;;5073607;28;20534;-67
2021/01/15 00:31:33;;;;;;;3.87;2.87;;;1.00;1.00;;;;;;5073834;28;20247;-67
2021/01/15 00:34:00;;;;;;;4.68;2.83;;;1.10;1.00;;;;;;5073638;28;20891;-67
2021/01/15 00:36:25;;;;;;;2.67;2.03;;;1.60;1.00;;;;;;5073446;28;20176;-67
2021/01/15 00:38:51;;;;;;;4.00;2.20;;;2.00;1.00;;;;;;5073477;28;20645;-66
2021/01/15 00:41:17;;;;;;;6.87;1.80;;;1.70;1.00;;;;;;5073699;28;20271;-66
2021/01/15 00:43:42;;;;;;;2.27;1.97;;;1.80;1.00;;;;;;5073602;28;20421;-66
2021/01/15 00:46:31;;;;;;;5.60;2.10;;;2.20;1.00;;;;;;5073342;28;20305;-66
2021/01/15 00:49:04;;;;;;;3.17;2.30;;;2.20;1.00;;;;;;5073379;28;20180;-66
2021/01/15 00:51:30;;;;;;;2.47;1.90;;;2.30;1.00;;;;;;5073403;28;20160;-67
2021/01/15 00:53:57;;;;;;;4.18;2.58;;;2.20;1.00;;;;;;5073265;28;20259;-66
2021/01/15 00:56:22;;;;;;;4.20;2.92;;;2.20;1.00;;;;;;5073225;28;20645;-67
2021/01/15 00:58:50;;;;;;;5.63;2.50;;;1.90;1.00;;;;;;5072978;28;20164;-66
2021/01/15 01:01:18;;;;;;;8.65;3.53;;;1.80;1.00;;;;;;5073088;28;20176;-67
2021/01/15 01:03:44;;;;;;;5.93;3.10;;;1.60;1.00;;;;;;5072842;28;20185;-67
2021/01/15 01:06:20;;;;;;;4.30;2.73;;;1.60;1.00;;;;;;5073035;28;20168;-67
2021/01/15 01:08:47;;;;;;;5.53;2.63;;;1.50;1.00;;;;;;5073191;28;20148;-67
2021/01/15 01:11:21;;;;;;;4.20;2.55;;;1.80;1.00;;;;;;5072927;28;20176;-67
2021/01/15 01:13:48;;;;;;;5.80;3.00;;;2.20;1.00;;;;;;5072932;28;20175;-67
2021/01/15 01:16:18;;;;;;;7.00;3.67;;;2.00;1.00;;;;;;5072892;28;20168;-67
2021/01/15 01:18:45;;;;;;;5.35;3.47;;;2.00;1.00;;;;;;5073415;28;20168;-67
2021/01/15 01:21:11;;;;;;;5.38;3.15;;;1.70;1.00;;;;;;5072849;28;20251;-67
2021/01/15 01:23:37;;;;;;;4.40;2.47;;;1.90;1.00;;;;;;5072646;28;20176;-67
2021/01/15 01:26:03;;;;;;;6.30;3.13;;;1.90;1.00;;;;;;5072858;28;20178;-67
2021/01/15 01:28:29;;;;;;;5.53;3.47;;;1.80;1.00;;;;;;5072941;28;20377;-66
2021/01/15 01:30:54;;;;;;;9.00;5.10;;;2.10;1.00;;;;;;5072633;28;20401;-67
2021/01/15 01:33:20;;;;;;;6.50;2.77;;;2.00;1.00;;;;;;5072793;28;20664;-68
2021/01/15 01:35:46;;;;;;;5.63;2.97;;;2.10;1.00;;;;;;5074686;28;20567;-66
2021/01/15 01:38:11;;;;;;;5.30;2.50;;;1.90;1.00;;;;;;5076932;28;20175;-66
2021/01/15 01:40:37;;;;;;;4.80;3.07;;;1.90;1.00;;;;;;5077017;28;20191;-68
2021/01/15 01:43:03;;;;;;;3.70;2.87;;;2.00;1.00;;;;;;5076840;28;20617;-67
2021/01/15 01:45:28;;;;;;;6.63;2.83;;;2.00;1.00;;;;;;5076595;28;20192;-66
2021/01/15 01:47:56;;;;;;;4.43;3.50;;;1.90;1.00;;;;;;5077845;28;20418;-66
2021/01/15 01:50:22;;;;;;;14.25;6.10;;;2.00;1.00;;;;;;5078891;28;20559;-66
2021/01/15 01:52:48;;;;;;;12.23;4.85;;;2.10;1.00;;;;;;5076551;28;20172;-67
2021/01/15 01:55:15;;;;;;;15.43;5.40;;;2.10;1.00;;;;;;5076464;28;20183;-66
2021/01/15 01:57:40;;;;;;;20.42;5.65;;;1.80;1.00;;;;;;5076482;28;20164;-66
2021/01/15 02:00:07;;;;;;;12.43;5.60;;;2.00;1.00;;;;;;5076455;28;20184;-66
2021/01/15 02:02:33;;;;;;;9.52;4.47;;;2.20;1.00;;;;;;5076878;28;20416;-66
2021/01/15 02:04:58;;;;;;;9.27;4.20;;;2.40;1.00;;;;;;5076192;28;20691;-67
2021/01/15 02:07:24;;;;;;;5.77;3.70;;;2.30;1.00;;;;;;5076371;28;20167;-66
2021/01/15 02:10:19;;;;;;;7.73;3.80;;;2.60;1.00;;;;;;5076080;28;20194;-66
2021/01/15 02:13:02;;;;;;;5.85;4.13;;;2.80;1.00;;;;;;5076117;28;20168;-66
2021/01/15 02:15:32;;;;;;;12.90;5.00;;;2.60;1.00;;;;;;5076657;28;20171;-67
2021/01/15 02:18:30;;;;;;;6.53;4.18;;;2.40;1.00;;;;;;5076121;28;20167;-67
2021/01/15 02:21:01;;;;;;;6.85;3.92;;;2.30;1.00;;;;;;5072822;28;20265;-67
2021/01/15 02:23:49;;;;;;;4.75;4.25;;;2.20;1.00;;;;;;5075891;28;20259;-67
2021/01/15 02:26:37;;;;;;;8.13;5.55;;;2.60;1.00;;;;;;5075952;28;20529;-67
2021/01/15 02:29:21;;;;;;;4.28;3.70;;;2.60;1.00;;;;;;5073883;28;20172;-67
2021/01/15 02:31:46;;;;;;;5.85;3.78;;;2.40;1.00;;;;;;5076054;28;20148;-67
2021/01/15 02:34:15;;;;;;;8.40;3.80;;;2.70;1.00;;;;;;5075740;28;20663;-67
2021/01/15 02:37:03;;;;;;;5.85;2.90;;;2.60;1.00;;;;;;5075701;28;20636;-67
2021/01/15 02:39:40;;;;;;;2.88;2.55;;;2.40;1.00;;;;;;5075882;28;20259;-67
2021/01/15 02:42:07;;;;;;;8.88;4.45;;;2.50;1.00;;;;;;5075819;28;20152;-68
2021/01/15 02:44:36;;;;;;;4.07;3.35;;;2.60;1.00;;;;;;5075479;28;20198;-68
2021/01/15 02:47:07;;;;;;;4.55;3.10;;;2.70;1.00;;;;;;5074510;28;20656;-67
2021/01/15 02:49:34;;;;;;;4.70;2.97;;;2.70;1.00;;;;;;5075384;28;20230;-67
2021/01/15 02:52:00;;;;;;;4.60;3.35;;;2.60;1.00;;;;;;5075668;28;20161;-67
2021/01/15 02:54:26;;;;;;;4.87;3.10;;;2.70;1.00;;;;;;5075407;28;20176;-67
2021/01/15 02:56:52;;;;;;;4.47;3.40;;;2.90;1.00;;;;;;5075350;28;20172;-67
2021/01/15 02:59:17;;;;;;;5.97;3.70;;;2.70;1.00;;;;;;5075248;28;20926;-68
2021/01/15 03:02:00;;;;;;;6.70;4.37;;;2.80;1.00;;;;;;5075455;28;20199;-67
2021/01/15 03:04:59;;;;;;;5.30;3.25;;;2.50;1.00;;;;;;5075120;28;20266;-67
2021/01/15 03:07:26;;;;;;;4.53;3.28;;;2.50;1.00;;;;;;5075254;28;20278;-67
2021/01/15 03:09:58;;;;;;;3.00;2.70;;;2.40;1.00;;;;;;5075086;28;20188;-67
2021/01/15 03:12:26;;;;;;;3.42;2.90;;;2.70;1.00;;;;;;5075211;28;20176;-67
2021/01/15 03:14:53;;;;;;;5.10;3.20;;;2.60;1.00;;;;;;5075106;28;20172;-66
2021/01/15 03:17:23;;;;;;;4.05;2.65;;;2.70;1.00;;;;;;5074977;28;20168;-67
2021/01/15 03:19:49;;;;;;;3.78;3.17;;;2.40;1.00;;;;;;5075097;28;20195;-69
2021/01/15 03:22:17;;;;;;;7.20;3.50;;;2.40;1.00;;;;;;5075145;28;20566;-66
2021/01/15 03:24:52;;;;;;;3.83;3.10;;;2.60;1.00;;;;;;5074748;28;20191;-66
2021/01/15 03:27:19;;;;;;;3.60;2.97;;;3.10;1.00;;;;;;5074769;28;20160;-67
2021/01/15 03:29:45;;;;;;;5.15;3.10;;;2.90;1.00;;;;;;5074666;28;20560;-66
2021/01/15 03:32:11;;;;;;;3.53;2.53;;;3.10;1.00;;;;;;5074709;28;20251;-66
2021/01/15 03:34:37;;;;;;;4.40;3.45;;;3.30;1.00;;;;;;5074842;28;20350;-67
2021/01/15 03:37:03;;;;;;;4.73;3.50;;;3.10;1.00;;;;;;5073265;28;20196;-67
2021/01/15 03:39:28;;;;;;;3.95;3.50;;;2.80;1.00;;;;;;5074469;28;20187;-67
2021/01/15 03:41:54;;;;;;;5.90;4.20;;;2.70;1.00;;;;;;5074439;28;20620;-66
2021/01/15 03:44:19;;;;;;;5.07;3.30;;;2.70;1.00;;;;;;5073052;28;20199;-67
2021/01/15 03:46:45;;;;;;;6.97;3.70;;;2.80;1.00;;;;;;5074679;28;20172;-67
2021/01/15 03:49:10;;;;;;;5.50;3.50;;;2.70;1.00;;;;;;5074184;28;20211;-67
2021/01/15 03:51:39;;;;;;;5.33;3.37;;;2.80;1.00;;;;;;5074301;28;20283;-67
2021/01/15 03:54:05;;;;;;;4.88;2.22;;;2.70;1.00;;;;;;5074201;28;20168;-66
2021/01/15 03:56:30;;;;;;;4.83;3.27;;;2.90;1.00;;;;;;5074197;28;20184;-67
2021/01/15 03:58:56;;;;;;;4.67;3.00;;;3.00;1.00;;;;;;5073947;28;20168;-67
2021/01/15 04:01:21;;;;;;;3.13;2.53;;;3.20;1.00;;;;;;5074142;28;20222;-67
2021/01/15 04:03:47;;;;;;;4.20;2.70;;;3.20;1.00;;;;;;5074008;28;20179;-67
2021/01/15 04:06:12;;;;;;;2.87;2.13;;;3.20;1.00;;;;;;5073963;28;20247;-67
2021/01/15 04:08:40;;;;;;;3.93;3.10;;;3.30;1.00;;;;;;5073934;28;20219;-67
2021/01/15 04:11:05;;;;;;;4.20;2.85;;;3.00;1.00;;;;;;5073761;28;20228;-65
2021/01/15 04:13:31;;;;;;;4.53;3.60;;;2.90;1.00;;;;;;5073796;28;20172;-66
2021/01/15 04:15:56;;;;;;;4.20;3.80;;;3.00;1.00;;;;;;5073762;28;20172;-67
2021/01/15 04:18:22;;;;;;;6.73;3.57;;;3.20;1.00;;;;;;5073695;28;20644;-67
2021/01/15 04:20:47;;;;;;;4.40;3.57;;;3.10;1.00;;;;;;5073615;28;20199;-67
2021/01/15 04:23:13;;;;;;;5.10;3.20;;;3.00;1.00;;;;;;5073668;28;20168;-66
2021/01/15 04:25:38;;;;;;;6.43;3.40;;;2.90;1.00;;;;;;5073476;28;20207;-66
2021/01/15 04:28:04;;;;;;;6.67;4.10;;;2.90;1.00;;;;;;5073326;28;20579;-66
2021/01/15 04:30:30;;;;;;;3.37;2.87;;;3.00;1.00;;;;;;5073235;28;20198;-67
2021/01/15 04:32:55;;;;;;;10.10;3.43;;;3.00;1.00;;;;;;5073561;28;20175;-67
2021/01/15 04:35:21;;;;;;;4.27;3.23;;;3.10;1.00;;;;;;5073650;28;20672;-67
2021/01/15 04:37:47;;;;;;;10.57;4.10;;;2.80;1.00;;;;;;5073150;28;20179;-66
2021/01/15 04:40:13;;;;;;;5.25;3.25;;;3.10;1.00;;;;;;5073101;28;20199;-68
2021/01/15 04:42:42;;;;;;;7.55;4.30;;;2.90;1.00;;;;;;5073202;28;20172;-67
2021/01/15 04:45:12;;;;;;;7.70;4.55;;;3.00;1.00;;;;;;5073017;28;20249;-67
2021/01/15 04:47:44;;;;;;;7.95;3.75;;;3.20;1.00;;;;;;5072888;28;20270;-68
2021/01/15 04:50:12;;;;;;;8.90;4.45;;;3.00;1.00;;;;;;5072956;28;20218;-67
2021/01/15 04:52:45;;;;;;;6.32;4.20;;;3.00;1.00;;;;;;5072913;28;20202;-68
2021/01/15 04:55:17;;;;;;;7.50;5.38;;;3.00;1.00;;;;;;5073282;28;20156;-67
2021/01/15 04:57:47;;;;;;;4.78;3.60;;;2.90;1.00;;;;;;5072903;28;20226;-67
2021/01/15 05:00:16;;;;;;;8.63;5.15;;;2.80;1.00;;;;;;5073417;28;20192;-66
2021/01/15 05:02:46;;;;;;;9.50;4.45;;;2.60;1.00;;;;;;5072820;28;20516;-67
2021/01/15 05:05:25;;;;;;;20.85;6.35;;;2.90;1.00;;;;;;5072906;28;20534;-67
2021/01/15 05:08:10;;;;;;;15.90;6.70;;;2.80;1.00;;;;;;5073123;28;20152;-68
2021/01/15 05:10:38;;;;;;;11.13;6.25;;;2.70;1.00;;;;;;5072270;28;20188;-67
2021/01/15 05:13:08;;;;;;;13.00;6.20;;;2.60;1.00;;;;;;5072663;28;20166;-66
2021/01/15 05:15:36;;;;;;;22.15;6.30;;;2.60;1.00;;;;;;5072802;28;20175;-67
2021/01/15 05:18:04;;;;;;;16.30;6.43;;;2.80;1.00;;;;;;5073335;28;20629;-68
2021/01/15 05:20:31;;;;;;;13.25;6.45;;;2.80;1.00;;;;;;5072610;28;20661;-67
2021/01/15 05:23:01;;;;;;;18.65;5.95;;;2.90;1.00;;;;;;5072895;28;20191;-67
2021/01/15 05:25:27;;;;;;;15.75;7.20;;;2.80;1.00;;;;;;5072627;28;20727;-68
2021/01/15 05:27:53;;;;;;;11.68;5.85;;;2.90;1.00;;;;;;5072631;28;20174;-67
2021/01/15 05:30:22;;;;;;;12.80;7.00;;;2.60;1.00;;;;;;5072471;28;20180;-68
2021/01/15 05:32:49;;;;;;;9.25;5.82;;;2.80;1.00;;;;;;5072410;28;20472;-66
2021/01/15 05:35:15;;;;;;;16.30;6.25;;;2.90;1.00;;;;;;5072455;28;20274;-67
2021/01/15 05:37:42;;;;;;;20.00;6.75;;;3.10;1.00;;;;;;5072586;28;20218;-67
2021/01/15 05:40:08;;;;;;;47.50;6.88;;;2.90;1.00;;;;;;5072733;28;20192;-67
2021/01/15 05:42:50;;;;;;;15.55;5.82;;;2.80;1.00;;;;;;5073168;28;20645;-67
2021/01/15 05:45:16;;;;;;;25.13;7.00;;;3.10;1.00;;;;;;5072237;28;20211;-67
2021/01/15 05:47:45;;;;;;;10.30;5.13;;;2.90;1.00;;;;;;5072525;28;20172;-67
2021/01/15 05:50:12;;;;;;;12.10;6.45;;;2.90;1.00;;;;;;5072348;28;20187;-67
2021/01/15 05:52:56;;;;;;;22.13;6.78;;;2.80;1.00;;;;;;5072357;28;20172;-67
2021/01/15 05:55:23;;;;;;;14.70;7.10;;;2.80;1.00;;;;;;5072526;28;20525;-67
2021/01/15 05:57:50;;;;;;;28.02;7.30;;;2.90;1.00;;;;;;5072286;28;20160;-67
2021/01/15 06:00:37;;;;;;;201.10;25.33;;;3.20;1.00;;;;;;5072215;28;20211;-67
2021/01/15 06:03:07;;;;;;;22.75;7.43;;;3.20;1.00;;;;;;5072284;28;20149;-68
2021/01/15 06:05:34;;;;;;;12.57;6.97;;;3.00;1.00;;;;;;5072139;28;20188;-68
2021/01/15 06:08:00;;;;;;;39.33;7.13;;;3.10;1.00;;;;;;5072320;28;20179;-67
2021/01/15 06:10:27;;;;;;;20.13;6.32;;;3.00;1.00;;;;;;5072215;28;20176;-67
2021/01/15 06:12:53;;;;;;;10.45;5.90;;;2.90;1.00;;;;;;5072099;28;20659;-67
2021/01/15 06:15:19;;;;;;;53.47;8.70;;;2.80;1.00;;;;;;5071972;28;20176;-67
2021/01/15 06:17:52;;;;;;;26.60;6.63;;;2.80;1.00;;;;;;5072267;28;20230;-67
2021/01/15 06:20:20;;;;;;;8.65;6.15;;;3.10;1.00;;;;;;5072589;28;20218;-67
2021/01/15 06:22:51;;;;;;;24.52;7.18;;;3.00;1.00;;;;;;5073765;28;20172;-67
2021/01/15 06:25:31;;;;;;;15.20;6.65;;;3.20;1.00;;;;;;5075687;28;20184;-67
2021/01/15 06:27:59;;;;;;;11.00;5.85;;;3.10;1.00;;;;;;5075625;28;20188;-67
2021/01/15 06:30:26;;;;;;;15.43;6.40;;;2.80;1.00;;;;;;5075603;28;20234;-66
2021/01/15 06:32:53;;;;;;;9.00;6.60;;;2.70;1.00;;;;;;5076031;28;20164;-66
2021/01/15 06:35:30;;;;;;;22.13;6.72;;;3.10;1.00;;;;;;5075473;28;20191;-66
2021/01/15 06:38:04;;;;;;;38.33;8.90;;;3.00;1.00;;;;;;5075827;28;20167;-66
2021/01/15 06:40:34;;;;;;;13.77;6.80;;;3.10;1.00;;;;;;5075474;28;20696;-67
2021/01/15 06:43:05;;;;;;;10.05;6.20;;;3.10;1.00;;;;;;5075614;28;20186;-67
2021/01/15 06:45:48;;;;;;;22.90;7.15;;;3.10;1.00;;;;;;5075244;28;20176;-66
2021/01/15 06:48:27;;;;;;;9.82;6.55;;;3.10;1.00;;;;;;5075270;28;20180;-67
2021/01/15 06:50:55;;;;;;;11.98;6.78;;;2.90;1.00;;;;;;5075077;28;20222;-67
2021/01/15 06:53:27;;;;;;;12.65;7.15;;;3.20;1.00;;;;;;5075560;28;20602;-67
2021/01/15 06:55:54;;;;;;;10.20;7.60;;;2.90;1.00;;;;;;5075074;28;20183;-67
2021/01/15 06:58:28;;;;;;;15.38;8.40;;;2.90;1.00;;;;;;5075143;28;20253;-66
2021/01/15 07:01:12;;;;;;;13.43;7.82;;;3.00;1.00;;;;;;5074960;28;20188;-66
2021/01/15 07:04:05;;;;;;;17.70;8.20;;;2.90;1.00;;;;;;5075167;28;20566;-66
2021/01/15 07:06:32;;;;;;;21.23;7.75;;;2.90;1.00;;;;;;5074669;28;20259;-67
2021/01/15 07:09:03;;;;;;;16.95;9.48;;;2.80;1.00;;;;;;5074629;28;20172;-67
2021/01/15 07:11:29;;;;;;;50.97;11.15;;;2.60;1.00;;;;;;5074956;28;20148;-67
2021/01/15 07:13:57;;;;;;;15.73;8.10;;;2.80;1.00;;;;;;5074844;28;20172;-67
2021/01/15 07:16:32;;;;;;;30.85;11.02;;;2.60;1.00;;;;;;5074480;28;20196;-67
2021/01/15 07:19:16;;;;;;;24.88;11.13;;;2.60;1.00;;;;;;5074501;28;20168;-67
2021/01/15 07:22:04;;;;;;;18.05;10.50;;;2.70;1.00;;;;;;5073152;28;20168;-67
2021/01/15 07:24:33;;;;;;;14.02;8.40;;;2.60;1.00;;;;;;5068613;28;20211;-67
2021/01/15 07:27:00;;;;;;;19.92;9.13;;;2.60;1.00;;;;;;5074699;28;20633;-67
2021/01/15 07:29:27;;;;;;;12.35;9.30;;;2.90;1.00;;;;;;5074743;28;20245;-67
2021/01/15 07:32:15;;;;;;;17.58;9.65;;;2.90;1.00;;;;;;5074512;28;20225;-67
2021/01/15 07:34:48;;;;;;;19.23;11.27;;;2.80;1.00;;;;;;5073433;28;20556;-67
2021/01/15 07:37:25;;;;;;;76.70;13.93;;;2.70;1.00;;;;;;5074491;28;20168;-67
2021/01/15 07:40:14;;;;;;;15.60;10.27;;;2.90;1.00;;;;;;5074297;28;20561;-67
2021/01/15 07:42:40;;;;;;;14.43;10.45;;;2.80;1.00;;;;;;5074226;28;20609;-67
2021/01/15 07:45:06;;;;;;;15.27;9.47;;;3.00;1.00;;;;;;5074157;28;20192;-67
2021/01/15 07:47:37;;;;;;;20.70;11.00;;;2.80;1.00;;;;;;5074356;28;20176;-66
2021/01/15 07:50:05;;;;;;;16.95;10.38;;;2.90;1.00;;;;;;5073910;28;20180;-68
2021/01/15 07:52:30;;;;;;;21.98;12.13;;;2.80;1.00;;;;;;5073828;28;20191;-67
2021/01/15 07:55:02;;;;;;;21.63;11.70;;;2.70;1.00;;;;;;5074091;28;20172;-68
2021/01/15 07:57:29;;;;;;;24.90;11.68;;;2.90;1.00;;;;;;5074186;28;20155;-68
2021/01/15 07:59:56;;;;;;;19.25;10.95;;;2.80;1.00;;;;;;5073917;28;20199;-67
2021/01/15 08:02:21;;;;;;;15.50;11.10;;;2.90;1.00;;;;;;5073858;28;20247;-67
2021/01/15 08:04:48;;;;;;;16.77;10.97;;;2.90;1.00;;;;;;5073872;28;20622;-68
2021/01/15 08:07:35;;;;;;;19.83;11.15;;;2.60;1.00;;;;;;5073827;28;20176;-68
2021/01/15 08:10:01;;;;;;;18.27;11.60;;;2.60;1.00;;;;;;5072523;28;20182;-68
2021/01/15 08:12:36;;;;;;;16.93;11.13;;;2.70;1.00;;;;;;5074094;28;20218;-68
2021/01/15 08:15:03;;;;;;;20.75;12.15;;;2.90;1.00;;;;;;5073871;28;20361;-68
2021/01/15 08:17:29;;;;;;;16.85;10.57;;;3.20;1.00;;;;;;5073682;28;20168;-68
2021/01/15 08:19:55;;;;;;;13.60;11.32;;;2.70;1.00;;;;;;5073344;28;20226;-67
2021/01/15 08:22:22;;;;;;;19.67;12.57;;;2.90;1.00;;;;;;5073505;28;20172;-67
2021/01/15 08:24:50;;;;;;;18.90;11.57;;;2.80;1.00;;;;;;5073597;28;20428;-68
2021/01/15 08:27:20;;;;;;;19.73;11.40;;;2.70;1.00;;;;;;5073439;28;20160;-68
2021/01/15 08:29:46;;;;;;;25.63;11.48;;;3.10;1.00;;;;;;5073436;28;20200;-68
2021/01/15 08:32:12;;;;;;;135.30;28.60;;;2.90;1.00;;;;;;5073272;28;20171;-68
2021/01/15 08:34:39;;;;;;;22.10;11.63;;;2.90;1.00;;;;;;5073426;28;20404;-67
2021/01/15 08:37:08;;;;;;;18.17;11.30;;;3.10;1.00;;;;;;5073188;28;20176;-68
2021/01/15 08:39:47;;;;;;;24.40;13.15;;;3.10;1.00;;;;;;5073406;28;20180;-68
2021/01/15 08:42:14;;;;;;;25.27;11.75;;;3.40;1.00;;;;;;5073281;28;20566;-67
2021/01/15 08:44:41;;;;;;;17.75;13.30;;;3.40;1.00;;;;;;5072406;28;20196;-67
2021/01/15 08:47:12;;;;;;;22.77;13.32;;;3.30;1.00;;;;;;5073194;28;20176;-65
2021/01/15 08:49:38;;;;;;;25.90;13.77;;;3.30;1.00;;;;;;5071130;28;20688;-68
2021/01/15 08:52:05;;;;;;;14.07;9.55;;;3.10;1.00;;;;;;5073136;28;20168;-68
2021/01/15 08:54:33;;;;;;;21.23;11.80;;;2.90;1.00;;;;;;5072724;28;20171;-67
2021/01/15 08:57:00;;;;;;;19.98;11.93;;;3.10;1.00;;;;;;5072758;28;20179;-68
2021/01/15 08:59:31;;;;;;;20.40;10.45;;;3.00;1.00;;;;;;5073037;28;20274;-68
2021/01/15 09:02:03;;;;;;;17.80;10.77;;;3.40;1.00;;;;;;5073106;28;20171;-68
2021/01/15 09:04:31;;;;;;;17.35;10.45;;;3.50;1.00;;;;;;5072939;28;20216;-67
2021/01/15 09:06:58;;;;;;;18.30;11.45;;;3.80;1.00;;;;;;5071408;28;20248;-68
2021/01/15 09:09:26;;;;;;;33.75;12.80;;;3.40;1.00;;;;;;5072547;28;20617;-68
2021/01/15 09:11:53;;;;;;;30.42;12.45;;;3.20;1.00;;;;;;5072997;28;20156;-67
2021/01/15 09:14:23;;;;;;;17.20;11.30;;;3.50;1.00;;;;;;5072844;28;20201;-66
2021/01/15 09:16:50;;;;;;;19.38;11.70;;;3.80;1.00;;;;;;5072634;28;20153;-66
2021/01/15 09:19:16;;;;;;;17.35;11.85;;;3.70;1.00;;;;;;5072718;28;20188;-66
2021/01/15 09:21:49;;;;;;;37.25;13.70;;;3.40;1.00;;;;;;5072472;28;20225;-67
2021/01/15 09:24:16;;;;;;;18.73;10.95;;;3.70;1.00;;;;;;5072610;28;20333;-67
2021/01/15 09:26:42;;;;;;;18.63;10.73;;;4.00;1.00;;;;;;5072681;28;20161;-67
2021/01/15 09:29:10;;;;;;;20.55;13.05;;;3.50;1.00;;;;;;5072587;28;20188;-67
2021/01/15 09:31:39;;;;;;;14.77;11.00;;;3.40;1.00;;;;;;5072229;28;20176;-68
2021/01/15 09:34:05;;;;;;;26.45;10.57;;;3.50;1.00;;;;;;5072978;28;20233;-68
2021/01/15 09:36:31;;;;;;;17.67;9.47;;;3.50;1.00;;;;;;5072511;28;20164;-67
2021/01/15 09:38:58;;;;;;;17.50;10.10;;;3.50;1.00;;;;;;5072448;28;20372;-66
2021/01/15 09:41:24;;;;;;;28.88;12.13;;;3.20;1.00;;;;;;5072234;28;20250;-67
2021/01/15 09:43:53;;;;;;;29.92;11.80;;;3.80;1.00;;;;;;5072169;28;20201;-67
2021/01/15 09:46:29;;;;;;;22.70;11.48;;;4.10;1.00;;;;;;5072292;28;20194;-67
2021/01/15 09:48:56;;;;;;;28.13;11.40;;;3.80;1.00;;;;;;5072030;28;20190;-67
2021/01/15 09:51:26;;;;;;;20.75;11.05;;;3.80;1.00;;;;;;5072181;28;20210;-68
2021/01/15 09:53:56;;;;;;;18.73;10.35;;;3.70;1.00;;;;;;5072334;28;20196;-68
2021/01/15 09:56:28;;;;;;;19.10;10.38;;;4.40;1.00;;;;;;5073881;28;20175;-67
2021/01/15 09:58:58;;;;;;;15.23;10.35;;;3.90;1.00;;;;;;5075977;28;20172;-68
2021/01/15 10:01:28;;;;;;;15.70;9.93;;;3.50;1.00;;;;;;5077185;28;20172;-67
2021/01/15 10:03:55;;;;;;;17.85;10.38;;;3.50;1.00;;;;;;5076177;28;20164;-67
2021/01/15 10:06:21;;;;;;;22.10;10.65;;;3.70;1.00;;;;;;5075943;28;20164;-67
2021/01/15 10:08:47;;;;;;;23.03;11.43;;;3.90;1.00;;;;;;5076310;28;20167;-68
2021/01/15 10:11:23;;;;;;;21.53;12.07;;;3.80;1.00;;;;;;5075853;28;20455;-68
2021/01/15 10:13:52;;;;;;;21.60;11.70;;;4.00;1.00;;;;;;5076259;28;20394;-68
2021/01/15 10:16:17;;;;;;;21.02;13.27;;;4.20;1.00;;;;;;5076031;28;20168;-67
2021/01/15 10:18:43;;;;;;;39.63;14.10;;;4.10;1.00;;;;;;5075982;28;20164;-67
2021/01/15 10:21:09;;;;;;;18.87;11.13;;;3.60;1.00;;;;;;5074534;28;20225;-67
2021/01/15 10:23:38;;;;;;;21.93;12.70;;;4.10;1.00;;;;;;5075583;28;20173;-67
2021/01/15 10:26:05;;;;;;;26.70;12.55;;;4.00;1.00;;;;;;5074897;28;20249;-67
2021/01/15 10:28:31;;;;;;;32.45;15.70;;;4.20;1.00;;;;;;5075851;28;20229;-67
2021/01/15 10:30:57;;;;;;;22.17;13.30;;;4.30;1.00;;;;;;5075865;28;20649;-68
2021/01/15 10:33:23;;;;;;;23.03;13.40;;;3.70;1.00;;;;;;5075772;28;20213;-67
2021/01/15 10:35:50;;;;;;;31.38;13.57;;;3.70;1.00;;;;;;5075665;28;20415;-66
2021/01/15 10:38:16;;;;;;;38.85;12.95;;;3.80;1.00;;;;;;5075871;28;20172;-67
2021/01/15 10:40:46;;;;;;;20.80;12.38;;;3.50;1.00;;;;;;5075287;28;20198;-67
2021/01/15 10:43:12;;;;;;;30.40;12.82;;;3.80;1.00;;;;;;5075338;28;20255;-68
2021/01/15 10:45:38;;;;;;;33.38;12.63;;;3.90;1.00;;;;;;5075299;28;20275;-67
2021/01/15 10:48:05;;;;;;;47.45;15.35;;;3.80;1.00;;;;;;5075631;28;20210;-67
2021/01/15 10:50:31;;;;;;;35.83;12.90;;;3.80;1.00;;;;;;5075055;28;20192;-67
2021/01/15 10:52:56;;;;;;;28.90;12.40;;;3.90;1.00;;;;;;5075213;28;20164;-67
2021/01/15 10:55:23;;;;;;;21.30;12.60;;;3.70;1.00;;;;;;5075212;28;20185;-67
2021/01/15 10:57:48;;;;;;;18.80;11.95;;;4.00;1.00;;;;;;5075374;28;20172;-68
2021/01/15 11:00:15;;;;;;;22.60;11.97;;;3.80;1.00;;;;;;5076107;28;20192;-67
2021/01/15 11:02:46;;;;;;;25.75;12.93;;;3.80;1.00;;;;;;5075327;28;20537;-70
2021/01/15 11:05:12;;;;;;;22.48;12.13;;;3.90;1.00;;;;;;5075163;28;20192;-67
2021/01/15 11:07:37;;;;;;;19.57;11.87;;;3.90;1.00;;;;;;5074396;28;20168;-67
2021/01/15 11:10:03;;;;;;;23.13;11.60;;;4.20;1.00;;;;;;5075642;28;20465;-68
2021/01/15 11:12:29;;;;;;;21.48;12.80;;;4.10;1.00;;;;;;5075141;28;20164;-68
2021/01/15 11:14:55;;;;;;;24.03;12.10;;;4.20;1.00;;;;;;5074855;28;20655;-67
2021/01/15 11:17:20;;;;;;;23.47;12.50;;;4.20;1.00;;;;;;5075253;28;20241;-68
2021/01/15 11:19:46;;;;;;;25.37;13.93;;;4.20;1.00;;;;;;5074936;28;20219;-68
2021/01/15 11:22:11;;;;;;;28.53;16.13;;;4.20;1.00;;;;;;5074903;28;20176;-68
2021/01/15 11:24:37;;;;;;;18.87;12.30;;;4.60;1.00;;;;;;5074952;28;20293;-67
2021/01/15 11:27:03;;;;;;;17.30;10.13;;;4.50;1.00;;;;;;5075004;28;20632;-68
2021/01/15 11:29:29;;;;;;;28.57;12.90;;;4.50;1.00;;;;;;5073513;28;20466;-67
2021/01/15 11:31:54;;;;;;;23.10;13.10;;;4.30;1.00;;;;;;5074892;28;20183;-69
2021/01/15 11:34:21;;;;;;;19.67;11.47;;;4.20;1.00;;;;;;5074898;28;20506;-67
2021/01/15 11:36:50;;;;;;;17.08;11.43;;;4.40;1.00;;;;;;5074887;28;20171;-69
2021/01/15 11:39:16;;;;;;;27.23;12.20;;;4.50;1.00;;;;;;5074509;28;20218;-68
2021/01/15 11:41:42;;;;;;;26.42;14.13;;;4.40;1.00;;;;;;5074524;28;20176;-67
2021/01/15 11:44:09;;;;;;;37.95;16.10;;;4.70;1.00;;;;;;5074435;28;20539;-66
2021/01/15 11:46:35;;;;;;;38.42;13.43;;;4.40;1.00;;;;;;5074749;28;20195;-67
2021/01/15 11:49:01;;;;;;;22.05;11.98;;;4.50;1.00;;;;;;5074265;28;20179;-67
2021/01/15 11:51:27;;;;;;;28.33;12.60;;;4.80;1.00;;;;;;5074534;28;20210;-67
2021/01/15 11:53:53;;;;;;;29.02;13.73;;;4.60;1.00;;;;;;5074341;28;20176;-67
2021/01/15 11:56:18;;;;;;;27.20;12.80;;;4.60;1.00;;;;;;5074237;28;20317;-68
2021/01/15 11:58:44;;;;;;;31.50;12.03;;;5.00;1.00;;;;;;5073424;28;20258;-67
2021/01/15 12:01:09;;;;;;;20.10;11.90;;;5.00;1.00;;;;;;5073698;28;20263;-68
2021/01/15 12:03:35;;;;;;;24.63;13.60;;;5.00;1.00;;;;;;5073959;28;20660;-68
2021/01/15 12:06:01;;;;;;;19.80;12.57;;;4.50;1.00;;;;;;5073807;28;20222;-68
2021/01/15 12:08:27;;;;;;;31.75;12.95;;;4.60;1.00;;;;;;5074150;28;20384;-68
2021/01/15 12:10:56;;;;;;;29.20;11.30;;;4.70;1.00;;;;;;5073886;28;20653;-68
2021/01/15 12:13:25;;;;;;;21.48;13.00;;;5.00;1.00;;;;;;5073929;28;20381;-68
2021/01/15 12:15:52;;;;;;;27.45;12.10;;;4.70;1.00;;;;;;5073954;28;20217;-68
2021/01/15 12:18:18;;;;;;;17.83;10.20;;;4.90;1.00;;;;;;5074289;28;20196;-68
2021/01/15 12:20:44;;;;;;;25.70;12.40;;;4.90;1.00;;;;;;5073853;28;20199;-68
2021/01/15 12:23:11;;;;;;;21.40;12.02;;;5.10;1.00;;;;;;5072261;28;20214;-68
2021/01/15 12:25:40;;;;;;;19.25;12.25;;;5.60;1.00;;;;;;5073775;28;20249;-67
2021/01/15 12:28:13;;;;;;;24.08;13.90;;;5.00;1.00;;;;;;5073849;28;20198;-67
2021/01/15 12:30:39;;;;;;;22.58;11.15;;;4.90;1.00;;;;;;5073557;28;20557;-68
2021/01/15 12:33:06;;;;;;;21.27;10.75;;;5.30;1.00;;;;;;5073782;28;20214;-68
2021/01/15 12:35:33;;;;;;;18.90;10.40;;;5.50;1.00;;;;;;5073764;28;20172;-68
2021/01/15 12:38:06;;;;;;;14.70;9.32;;;5.30;1.00;;;;;;5073449;28;20168;-68
2021/01/15 12:40:32;;;;;;;14.75;9.18;;;5.00;1.00;;;;;;5073554;28;20192;-68
2021/01/15 12:42:57;;;;;;;23.02;9.35;;;5.10;1.00;;;;;;5073397;28;20175;-68
2021/01/15 12:45:23;;;;;;;13.77;9.43;;;5.00;1.00;;;;;;5073209;28;20187;-67
2021/01/15 12:47:49;;;;;;;14.43;8.47;;;5.10;1.00;;;;;;5072979;28;20657;-68
2021/01/15 12:50:14;;;;;;;21.93;9.53;;;5.30;1.00;;;;;;5073287;28;20188;-68
2021/01/15 12:52:40;;;;;;;12.90;6.97;;;5.40;1.00;;;;;;5073125;28;20167;-68
2021/01/15 12:55:06;;;;;;;18.10;8.60;;;5.30;1.00;;;;;;5073184;28;20248;-68
2021/01/15 12:57:32;;;;;;;16.95;8.80;;;5.70;1.00;;;;;;5071448;28;20168;-68
2021/01/15 12:59:58;;;;;;;12.90;6.25;;;5.40;1.00;;;;;;5073312;28;20747;-68
2021/01/15 13:02:24;;;;;;;10.10;6.23;;;5.00;1.00;;;;;;5071723;28;20219;-68
2021/01/15 13:04:49;;;;;;;11.30;6.20;;;5.30;1.00;;;;;;5073019;28;20238;-68
2021/01/15 13:07:15;;;;;;;8.97;6.60;;;5.50;1.00;;;;;;5073013;28;20168;-68